createdAt,value
2018-04-17T00:00:18.886Z,12.11
2018-04-17T00:02:46.445Z,12.05
2018-04-17T00:05:13.993Z,12.00
2018-04-17T00:07:41.576Z,11.94
2018-04-17T00:10:09.182Z,11.85
2018-04-17T00:12:36.728Z,11.76
2018-04-17T00:15:04.282Z,11.77
2018-04-17T00:17:31.862Z,11.78
2018-04-17T00:19:59.417Z,11.77
2018-04-17T00:22:27.013Z,11.73
2018-04-17T00:24:54.609Z,11.67
2018-04-17T00:27:22.171Z,11.64
2018-04-17T00:29:49.743Z,11.59
2018-04-17T00:32:17.298Z,11.55
2018-04-17T00:34:44.887Z,11.50
2018-04-17T00:37:12.465Z,11.44
2018-04-17T00:39:40.021Z,11.38
2018-04-17T00:42:07.598Z,11.32
2018-04-17T00:44:35.190Z,11.24
2018-04-17T00:47:02.774Z,11.15
2018-04-17T00:49:30.338Z,11.10
2018-04-17T00:51:57.892Z,11.06
2018-04-17T00:54:25.478Z,11.02
2018-04-17T00:56:53.032Z,10.93
2018-04-17T00:59:20.608Z,10.80
2018-04-17T01:01:48.171Z,10.72
2018-04-17T01:04:15.720Z,10.65
2018-04-17T01:06:43.289Z,10.61
2018-04-17T01:09:10.845Z,10.48
2018-04-17T01:11:39.417Z,10.45
2018-04-17T01:14:06.977Z,10.44
2018-04-17T01:16:34.532Z,10.40
2018-04-17T01:19:02.109Z,10.40
2018-04-17T01:21:29.670Z,10.01
2018-04-17T01:23:57.266Z,10.34
2018-04-17T01:26:24.829Z,10.29
2018-04-17T01:28:52.856Z,10.15
2018-04-17T01:31:20.428Z,10.01
2018-04-17T01:33:47.992Z,9.98
2018-04-17T01:36:15.597Z,9.96
2018-04-17T01:38:43.159Z,9.91
2018-04-17T01:41:10.717Z,9.86
2018-04-17T01:43:38.294Z,9.81
2018-04-17T01:46:05.836Z,9.79
2018-04-17T01:48:33.430Z,9.78
2018-04-17T01:51:01.010Z,9.78
2018-04-17T01:53:28.567Z,9.75
2018-04-17T01:55:56.142Z,9.79
2018-04-17T01:58:23.752Z,9.75
2018-04-17T02:00:51.321Z,9.74
2018-04-17T02:03:18.905Z,9.72
2018-04-17T02:05:46.456Z,9.70
2018-04-17T02:08:14.040Z,9.66
2018-04-17T02:10:41.592Z,9.65
2018-04-17T02:13:09.160Z,9.68
2018-04-17T02:15:36.721Z,9.71
2018-04-17T02:18:04.277Z,9.68
2018-04-17T02:20:31.873Z,9.63
2018-04-17T02:22:59.432Z,9.56
2018-04-17T02:25:27.010Z,9.50
2018-04-17T02:27:54.568Z,9.45
2018-04-17T02:30:22.120Z,9.45
2018-04-17T02:32:49.693Z,9.45
2018-04-17T02:35:17.241Z,9.40
2018-04-17T02:37:44.825Z,9.37
2018-04-17T02:40:12.386Z,9.43
2018-04-17T02:42:39.949Z,9.45
2018-04-17T02:45:07.538Z,9.44
2018-04-17T02:47:35.197Z,9.40
2018-04-17T02:50:02.781Z,9.40
2018-04-17T02:52:30.337Z,9.39
2018-04-17T02:54:57.892Z,9.37
2018-04-17T02:57:25.477Z,9.34
2018-04-17T02:59:53.061Z,9.33
2018-04-17T03:02:21.497Z,9.25
2018-04-17T03:04:49.049Z,9.22
2018-04-17T03:07:16.609Z,9.25
2018-04-17T03:09:44.181Z,9.29
2018-04-17T03:12:11.737Z,9.35
2018-04-17T03:14:39.318Z,9.35
2018-04-17T03:17:06.865Z,9.35
2018-04-17T03:19:34.421Z,9.35
2018-04-17T03:22:02.012Z,9.36
2018-04-17T03:24:29.566Z,9.36
2018-04-17T03:26:57.285Z,9.35
2018-04-17T03:29:25.299Z,9.35
2018-04-17T03:31:52.846Z,9.34
2018-04-17T03:34:20.425Z,9.30
2018-04-17T03:36:48.087Z,9.29
2018-04-17T03:39:15.719Z,9.30
2018-04-17T03:41:43.308Z,9.27
2018-04-17T03:44:10.940Z,9.25
2018-04-17T03:46:38.544Z,9.28
2018-04-17T03:49:06.175Z,9.26
2018-04-17T03:51:33.822Z,9.30
2018-04-17T03:54:01.416Z,9.31
2018-04-17T03:56:29.029Z,9.28
2018-04-17T03:58:56.617Z,9.27
2018-04-17T04:01:24.185Z,9.26
2018-04-17T04:03:51.760Z,9.25
2018-04-17T04:06:19.313Z,9.30
2018-04-17T04:08:46.868Z,9.29
2018-04-17T04:11:14.444Z,9.29
2018-04-17T04:13:41.984Z,9.22
2018-04-17T04:19:24.052Z,9.00
2018-04-17T04:22:04.451Z,8.91
2018-04-17T04:24:43.688Z,8.91
2018-04-17T04:27:11.251Z,8.92
2018-04-17T04:29:38.824Z,8.88
2018-04-17T04:32:06.397Z,8.93
2018-04-17T04:34:33.944Z,9.02
2018-04-17T04:37:01.488Z,9.09
2018-04-17T04:39:29.052Z,9.16
2018-04-17T04:41:56.596Z,9.25
2018-04-17T04:44:24.181Z,9.35
2018-04-17T04:46:51.733Z,9.24
2018-04-17T04:49:19.281Z,9.26
2018-04-17T04:51:46.852Z,9.25
2018-04-17T04:54:14.395Z,9.20
2018-04-17T04:56:41.994Z,9.35
2018-04-17T04:59:09.550Z,9.58
2018-04-17T05:01:37.105Z,9.75
2018-04-17T05:04:04.685Z,9.61
2018-04-17T05:06:32.296Z,9.50
2018-04-17T05:08:59.873Z,9.33
2018-04-17T05:11:27.417Z,9.55
2018-04-17T05:13:54.960Z,9.90
2018-04-17T05:16:22.534Z,10.13
2018-04-17T05:18:50.080Z,10.36
2018-04-17T05:21:17.648Z,10.20
2018-04-17T05:23:45.263Z,10.03
2018-04-17T05:26:12.789Z,10.16
2018-04-17T05:28:40.379Z,10.38
2018-04-17T05:31:07.937Z,10.46
2018-04-17T05:33:36.521Z,10.52
2018-04-17T05:36:04.102Z,10.52
2018-04-17T05:38:31.651Z,10.54
2018-04-17T05:40:59.226Z,10.68
2018-04-17T05:43:26.728Z,10.62
2018-04-17T05:45:54.249Z,10.53
2018-04-17T05:48:21.744Z,10.79
2018-04-17T05:50:49.241Z,10.99
2018-04-17T05:53:16.773Z,11.17
2018-04-17T05:55:44.343Z,11.42
2018-04-17T05:58:11.831Z,11.36
2018-04-17T06:00:39.334Z,11.27
2018-04-17T06:03:06.835Z,11.44
2018-04-17T06:05:34.353Z,11.30
2018-04-17T06:08:01.849Z,11.50
2018-04-17T06:10:29.378Z,11.69
2018-04-17T06:12:56.881Z,11.79
2018-04-17T06:15:24.414Z,11.88
2018-04-17T06:17:51.941Z,11.61
2018-04-17T06:20:19.482Z,11.34
2018-04-17T06:22:47.015Z,11.34
2018-04-17T06:25:14.514Z,11.38
2018-04-17T06:27:42.012Z,11.32
2018-04-17T06:30:09.529Z,11.18
2018-04-17T06:32:37.029Z,11.57
2018-04-17T06:35:04.605Z,11.44
2018-04-17T06:37:32.060Z,11.23
2018-04-17T06:39:59.553Z,11.16
2018-04-17T06:42:27.066Z,11.37
2018-04-17T06:44:54.556Z,11.60
2018-04-17T06:47:22.116Z,11.85
2018-04-17T06:49:49.590Z,12.45
2018-04-17T06:52:17.080Z,12.96
2018-04-17T06:54:44.589Z,13.10
2018-04-17T06:57:12.086Z,13.95
2018-04-17T06:59:39.608Z,14.30
2018-04-17T07:02:07.098Z,14.31
2018-04-17T07:04:34.607Z,14.45
2018-04-17T07:07:02.126Z,14.53
2018-04-17T07:09:29.627Z,15.22
2018-04-17T07:11:57.156Z,15.47
2018-04-17T07:14:24.659Z,16.57
2018-04-17T07:16:52.156Z,17.25
2018-04-17T07:19:19.694Z,18.94
2018-04-17T07:21:47.193Z,19.61
2018-04-17T07:24:14.713Z,21.07
2018-04-17T07:26:42.206Z,21.44
2018-04-17T07:29:09.712Z,21.51
2018-04-17T07:31:37.230Z,22.07
2018-04-17T07:34:04.726Z,23.27
2018-04-17T07:36:32.245Z,24.32
2018-04-17T07:38:59.741Z,24.58
2018-04-17T07:41:27.342Z,24.63
2018-04-17T07:43:54.776Z,25.40
2018-04-17T07:46:22.279Z,25.25
2018-04-17T07:48:50.701Z,25.24
2018-04-17T07:51:18.188Z,25.77
2018-04-17T07:53:45.712Z,26.11
2018-04-17T07:56:13.204Z,26.14
2018-04-17T07:58:40.702Z,25.46
2018-04-17T08:01:08.225Z,25.95
2018-04-17T08:03:35.721Z,25.95
2018-04-17T08:06:03.237Z,26.23
2018-04-17T08:08:30.733Z,26.45
2018-04-17T08:10:58.226Z,27.16
2018-04-17T08:13:25.751Z,27.09
2018-04-17T08:15:53.240Z,27.33
2018-04-17T08:18:20.760Z,27.80
2018-04-17T08:20:48.253Z,27.47
2018-04-17T08:23:16.674Z,27.95
2018-04-17T08:25:44.209Z,28.31
2018-04-17T08:28:11.759Z,29.05
2018-04-17T08:30:39.306Z,29.40
2018-04-17T08:33:06.802Z,28.70
2018-04-17T08:35:34.290Z,28.18
2018-04-17T08:38:01.814Z,28.30
2018-04-17T08:40:29.323Z,29.09
2018-04-17T08:42:56.847Z,29.35
2018-04-17T08:45:24.406Z,29.35
2018-04-17T08:47:51.901Z,29.66
2018-04-17T08:50:19.412Z,30.07
2018-04-17T08:52:46.913Z,29.97
2018-04-17T08:55:14.438Z,30.01
2018-04-17T08:57:41.929Z,30.68
2018-04-17T09:00:09.427Z,30.35
2018-04-17T09:02:36.938Z,29.80
2018-04-17T09:05:04.430Z,27.95
2018-04-17T09:07:31.942Z,27.98
2018-04-17T09:09:59.438Z,27.19
2018-04-17T09:12:26.934Z,28.29
2018-04-17T09:14:54.456Z,29.27
2018-04-17T09:17:21.945Z,29.34
2018-04-17T09:19:49.470Z,29.90
2018-04-17T09:22:16.971Z,29.99
2018-04-17T09:24:44.465Z,30.38
2018-04-17T09:27:11.985Z,30.76
2018-04-17T09:29:39.482Z,31.09
2018-04-17T09:32:07.973Z,30.78
2018-04-17T09:34:35.546Z,31.00
2018-04-17T09:37:03.011Z,31.41
2018-04-17T09:39:30.534Z,31.11
2018-04-17T09:41:58.036Z,30.98
2018-04-17T09:44:26.422Z,29.01
2018-04-17T09:46:53.915Z,28.08
2018-04-17T09:49:21.413Z,27.94
2018-04-17T09:51:48.925Z,27.46
2018-04-17T09:54:16.425Z,28.44
2018-04-17T09:56:43.922Z,28.16
2018-04-17T09:59:11.453Z,29.78
2018-04-17T10:01:38.952Z,30.84
2018-04-17T10:04:06.457Z,29.33
2018-04-17T10:06:33.988Z,30.49
2018-04-17T10:09:01.624Z,30.93
2018-04-17T10:11:29.100Z,30.81
2018-04-17T10:13:56.674Z,28.14
2018-04-17T10:16:24.169Z,27.91
2018-04-17T10:18:51.681Z,28.36
2018-04-17T10:21:19.234Z,27.36
2018-04-17T10:23:46.753Z,29.10
2018-04-17T10:26:14.252Z,29.56
2018-04-17T10:28:41.758Z,29.97
2018-04-17T10:31:09.286Z,31.06
2018-04-17T10:33:36.774Z,28.89
2018-04-17T10:36:04.302Z,30.91
2018-04-17T10:38:31.812Z,31.16
2018-04-17T10:40:59.481Z,30.55
2018-04-17T10:43:27.238Z,31.76
2018-04-17T10:45:54.770Z,32.36
2018-04-17T10:48:22.291Z,32.68
2018-04-17T10:50:49.937Z,32.79
2018-04-17T10:53:17.553Z,33.38
2018-04-17T10:55:45.084Z,32.57
2018-04-17T10:58:12.581Z,30.10
2018-04-17T11:00:40.267Z,29.29
2018-04-17T11:03:07.925Z,28.69
2018-04-17T11:05:35.523Z,30.35
2018-04-17T11:08:03.051Z,30.83
2018-04-17T11:10:30.578Z,31.47
2018-04-17T11:12:58.278Z,31.10
2018-04-17T11:15:25.812Z,30.63
2018-04-17T11:17:53.325Z,27.44
2018-04-17T11:20:20.868Z,27.33
2018-04-17T11:22:48.550Z,28.06
2018-04-17T11:25:16.119Z,27.00
2018-04-17T11:27:43.634Z,25.14
2018-04-17T11:30:11.147Z,26.32
2018-04-17T11:32:38.858Z,26.71
2018-04-17T11:35:06.477Z,26.01
2018-04-17T11:37:34.018Z,26.37
2018-04-17T11:40:01.513Z,25.90
2018-04-17T11:42:29.175Z,25.77
2018-04-17T11:44:56.916Z,25.69
2018-04-17T11:47:24.433Z,24.67
2018-04-17T11:49:51.952Z,25.23
2018-04-17T11:52:19.602Z,25.80
2018-04-17T11:54:47.293Z,25.81
2018-04-17T11:57:14.830Z,24.75
2018-04-17T11:59:42.324Z,24.88
2018-04-17T12:02:09.847Z,25.48
2018-04-17T12:04:37.347Z,25.85
2018-04-17T12:07:04.863Z,25.28
2018-04-17T12:09:32.377Z,25.10
2018-04-17T12:11:59.864Z,23.40
2018-04-17T12:14:27.392Z,23.51
2018-04-17T12:16:54.885Z,23.41
2018-04-17T12:19:22.376Z,23.26
2018-04-17T12:21:49.903Z,23.37
2018-04-17T12:24:17.401Z,23.43
2018-04-17T12:26:44.937Z,23.66
2018-04-17T12:29:12.430Z,23.99
2018-04-17T12:31:39.921Z,23.81
2018-04-17T12:34:07.481Z,23.52
2018-04-17T12:36:34.973Z,23.25
2018-04-17T12:39:02.484Z,23.47
2018-04-17T12:41:29.979Z,23.01
2018-04-17T12:43:57.472Z,22.84
2018-04-17T12:46:24.994Z,22.58
2018-04-17T12:48:52.492Z,22.90
2018-04-17T12:51:20.021Z,23.17
2018-04-17T12:53:47.580Z,22.99
2018-04-17T12:56:15.072Z,22.82
2018-04-17T12:58:42.588Z,22.73
2018-04-17T13:01:10.090Z,22.60
2018-04-17T13:03:38.577Z,22.91
2018-04-17T13:06:06.066Z,23.19
2018-04-17T13:08:33.566Z,23.06
2018-04-17T13:11:01.088Z,22.52
2018-04-17T13:13:28.642Z,21.95
2018-04-17T13:15:56.162Z,22.40
2018-04-17T13:18:23.689Z,21.97
2018-04-17T13:20:51.173Z,22.29
2018-04-17T13:23:18.682Z,22.27
2018-04-17T13:25:46.175Z,21.85
2018-04-17T13:28:13.703Z,21.95
2018-04-17T13:30:41.197Z,21.89
2018-04-17T13:33:08.718Z,22.31
2018-04-17T13:35:36.231Z,22.17
2018-04-17T13:38:03.722Z,21.98
2018-04-17T13:40:31.242Z,22.07
2018-04-17T13:42:58.736Z,22.34
2018-04-17T13:45:26.220Z,22.48
2018-04-17T13:47:53.734Z,22.63
2018-04-17T13:50:21.229Z,22.79
2018-04-17T13:52:48.745Z,22.92
2018-04-17T13:55:16.233Z,23.03
2018-04-17T13:57:43.722Z,23.10
2018-04-17T14:00:11.242Z,22.16
2018-04-17T14:02:38.800Z,22.40
2018-04-17T14:05:07.273Z,21.96
2018-04-17T14:07:34.774Z,22.11
2018-04-17T14:10:02.279Z,22.41
2018-04-17T14:12:29.801Z,22.62
2018-04-17T14:14:57.291Z,22.52
2018-04-17T14:17:24.824Z,22.20
2018-04-17T14:19:52.324Z,21.85
2018-04-17T14:22:19.818Z,21.70
2018-04-17T14:24:47.337Z,21.68
2018-04-17T14:27:14.842Z,21.69
2018-04-17T14:29:42.377Z,21.62
2018-04-17T14:32:09.873Z,21.83
2018-04-17T14:34:37.402Z,21.75
2018-04-17T14:37:04.933Z,21.59
2018-04-17T14:39:32.522Z,21.73
2018-04-17T14:42:00.053Z,21.73
2018-04-17T14:44:27.559Z,21.61
2018-04-17T14:46:55.128Z,21.76
2018-04-17T14:49:22.666Z,21.72
2018-04-17T14:51:50.167Z,21.73
2018-04-17T14:54:17.682Z,21.60
2018-04-17T14:56:45.184Z,21.30
2018-04-17T14:59:12.681Z,21.15
2018-04-17T15:01:40.198Z,21.04
2018-04-17T15:04:07.686Z,20.93
2018-04-17T15:06:35.210Z,21.08
2018-04-17T15:09:02.716Z,21.20
2018-04-17T15:11:30.201Z,21.14
2018-04-17T15:13:57.726Z,21.13
2018-04-17T15:16:25.222Z,21.11
2018-04-17T15:18:53.729Z,21.14
2018-04-17T15:21:21.213Z,21.18
2018-04-17T15:23:48.701Z,21.20
2018-04-17T15:26:16.222Z,21.33
2018-04-17T15:28:43.722Z,21.39
2018-04-17T15:31:11.240Z,21.37
2018-04-17T15:33:38.720Z,21.49
2018-04-17T15:36:06.210Z,21.36
2018-04-17T15:38:33.737Z,21.35
2018-04-17T15:41:01.227Z,21.44
2018-04-17T15:43:28.731Z,21.54
2018-04-17T15:45:56.208Z,21.39
2018-04-17T15:48:23.706Z,21.35
2018-04-17T15:50:51.254Z,21.45
2018-04-17T15:53:18.730Z,21.50
2018-04-17T15:55:46.230Z,21.32
2018-04-17T15:58:13.714Z,21.24
2018-04-17T16:00:41.220Z,21.16
2018-04-17T16:03:08.719Z,21.08
2018-04-17T16:05:36.192Z,21.05
2018-04-17T16:08:03.687Z,21.21
2018-04-17T16:10:31.162Z,21.13
2018-04-17T16:12:58.663Z,21.09
2018-04-17T16:15:26.155Z,21.23
2018-04-17T16:17:53.626Z,21.12
2018-04-17T16:20:21.130Z,21.02
2018-04-17T16:22:48.607Z,20.97
2018-04-17T16:25:16.079Z,20.89
2018-04-17T16:27:43.583Z,20.90
2018-04-17T16:30:11.064Z,20.85
2018-04-17T16:32:38.563Z,20.71
2018-04-17T16:35:06.036Z,20.83
2018-04-17T16:37:33.506Z,20.89
2018-04-17T16:40:00.993Z,20.83
2018-04-17T16:42:28.483Z,20.65
2018-04-17T16:44:56.000Z,20.62
2018-04-17T16:47:23.490Z,20.63
2018-04-17T16:49:51.061Z,20.68
2018-04-17T16:52:18.571Z,20.54
2018-04-17T16:54:46.067Z,20.54
2018-04-17T16:57:13.550Z,20.51
2018-04-17T16:59:41.072Z,20.49
2018-04-17T17:02:08.582Z,20.43
2018-04-17T17:04:36.073Z,20.47
2018-04-17T17:07:03.589Z,20.37
2018-04-17T17:09:31.077Z,20.35
2018-04-17T17:11:58.613Z,20.29
2018-04-17T17:14:26.114Z,20.22
2018-04-17T17:16:53.619Z,20.13
2018-04-17T17:19:21.135Z,20.06
2018-04-17T17:21:48.625Z,20.01
2018-04-17T17:24:16.142Z,19.95
2018-04-17T17:26:43.633Z,19.84
2018-04-17T17:29:11.119Z,19.75
2018-04-17T17:31:38.678Z,19.73
2018-04-17T17:34:06.225Z,19.65
2018-04-17T17:36:33.799Z,19.50
2018-04-17T17:39:01.372Z,19.35
2018-04-17T17:41:28.913Z,19.20
2018-04-17T17:43:56.454Z,19.05
2018-04-17T17:46:23.953Z,18.90
2018-04-17T17:48:51.575Z,18.74
2018-04-17T17:51:19.145Z,18.59
2018-04-17T17:53:46.659Z,18.44
2018-04-17T17:56:14.245Z,18.30
2018-04-17T17:58:41.752Z,18.20
2018-04-17T18:01:09.382Z,18.06
2018-04-17T18:03:36.981Z,17.93
2018-04-17T18:06:05.461Z,17.82
2018-04-17T18:08:33.085Z,17.72
2018-04-17T18:11:00.614Z,17.61
2018-04-17T18:13:28.156Z,17.51
2018-04-17T18:15:55.645Z,17.41
2018-04-17T18:18:23.125Z,17.30
2018-04-17T18:20:51.605Z,17.25
2018-04-17T18:23:19.102Z,17.19
2018-04-17T18:25:46.655Z,17.16
2018-04-17T18:28:14.153Z,17.07
2018-04-17T18:30:41.651Z,16.98
2018-04-17T18:33:09.164Z,16.87
2018-04-17T18:35:36.646Z,16.82
2018-04-17T18:38:04.169Z,16.74
2018-04-17T18:40:31.667Z,16.64
2018-04-17T18:42:59.167Z,16.54
2018-04-17T18:45:26.682Z,16.46
2018-04-17T18:47:54.173Z,16.40
2018-04-17T18:50:21.689Z,16.30
2018-04-17T18:52:49.191Z,16.18
2018-04-17T18:55:16.687Z,16.12
2018-04-17T18:57:44.200Z,16.11
2018-04-17T19:00:11.757Z,16.05
2018-04-17T19:02:39.277Z,15.97
2018-04-17T19:05:06.774Z,15.93
2018-04-17T19:07:34.274Z,15.90
2018-04-17T19:10:01.790Z,15.86
2018-04-17T19:12:29.289Z,15.76
2018-04-17T19:14:56.808Z,15.60
2018-04-17T19:17:24.294Z,15.41
2018-04-17T19:19:51.786Z,15.37
2018-04-17T19:22:19.713Z,15.34
2018-04-17T19:24:47.226Z,15.27
2018-04-17T19:27:14.744Z,15.25
2018-04-17T19:29:42.224Z,15.25
2018-04-17T19:32:09.737Z,15.26
2018-04-17T19:34:37.254Z,15.26
2018-04-17T19:37:04.758Z,15.24
2018-04-17T19:39:32.283Z,15.21
2018-04-17T19:41:59.768Z,15.18
2018-04-17T19:44:27.280Z,15.13
2018-04-17T19:46:54.788Z,15.08
2018-04-17T19:49:22.278Z,15.02
2018-04-17T19:51:49.796Z,14.92
2018-04-17T19:54:17.334Z,14.80
2018-04-17T19:56:44.821Z,14.72
2018-04-17T19:59:12.334Z,14.60
2018-04-17T20:01:39.823Z,14.52
2018-04-17T20:04:07.342Z,14.47
2018-04-17T20:06:34.848Z,14.42
2018-04-17T20:09:02.342Z,14.41
2018-04-17T20:11:30.797Z,14.44
2018-04-17T20:13:58.297Z,14.40
2018-04-17T20:16:25.809Z,14.31
2018-04-17T20:18:53.305Z,14.08
2018-04-17T20:21:20.797Z,14.16
2018-04-17T20:23:48.308Z,14.09
2018-04-17T20:26:15.801Z,13.97
2018-04-17T20:28:43.313Z,13.83
2018-04-17T20:31:10.805Z,13.69
2018-04-17T20:33:38.300Z,13.68
2018-04-17T20:36:05.816Z,13.70
2018-04-17T20:38:33.314Z,13.63
2018-04-17T20:41:00.824Z,13.54
2018-04-17T20:43:28.338Z,13.52
2018-04-17T20:45:55.830Z,13.45
2018-04-17T20:48:23.337Z,13.47
2018-04-17T20:50:50.825Z,13.47
2018-04-17T20:53:18.380Z,13.45
2018-04-17T20:55:45.915Z,13.41
2018-04-17T20:58:13.410Z,13.33
2018-04-17T21:00:40.928Z,13.23
2018-04-17T21:03:08.455Z,13.03
2018-04-17T21:05:35.973Z,13.03
2018-04-17T21:08:03.477Z,12.99
2018-04-17T21:10:30.961Z,12.91
2018-04-17T21:12:58.473Z,12.80
2018-04-17T21:15:25.960Z,12.74
2018-04-17T21:17:53.472Z,12.65
2018-04-17T21:20:20.965Z,12.55
2018-04-17T21:22:48.458Z,12.46
2018-04-17T21:25:15.970Z,12.41
2018-04-17T21:27:43.509Z,12.41
2018-04-17T21:30:11.033Z,12.38
2018-04-17T21:32:38.523Z,12.33
2018-04-17T21:35:06.024Z,12.30
2018-04-17T21:37:33.543Z,12.26
2018-04-17T21:40:01.034Z,12.26
2018-04-17T21:42:28.558Z,12.28
2018-04-17T21:44:56.049Z,12.24
2018-04-17T21:47:23.537Z,12.21
2018-04-17T21:49:51.050Z,12.12
2018-04-17T21:52:18.545Z,12.08
2018-04-17T21:54:46.069Z,12.03
2018-04-17T21:57:13.562Z,11.95
2018-04-17T21:59:41.046Z,11.86
2018-04-17T22:02:08.553Z,11.78
2018-04-17T22:04:36.051Z,11.67
2018-04-17T22:07:03.561Z,11.63
2018-04-17T22:09:31.050Z,11.56
2018-04-17T22:11:58.586Z,11.49
2018-04-17T22:14:26.162Z,11.42
2018-04-17T22:16:53.659Z,11.39
2018-04-17T22:19:21.181Z,11.34
2018-04-17T22:21:48.672Z,11.32
2018-04-17T22:24:16.164Z,11.30
2018-04-17T22:26:43.715Z,11.27
2018-04-17T22:29:11.214Z,11.26
2018-04-17T22:31:38.732Z,11.22
2018-04-17T22:34:06.246Z,11.16
2018-04-17T22:36:33.745Z,11.12
2018-04-17T22:39:01.262Z,11.06
2018-04-17T22:41:28.769Z,11.02
2018-04-17T22:43:56.289Z,11.01
2018-04-17T22:46:23.789Z,10.99
2018-04-17T22:48:51.290Z,10.98
2018-04-17T22:51:18.804Z,10.94
2018-04-17T22:53:46.310Z,10.91
2018-04-17T22:56:13.820Z,10.88
2018-04-17T22:58:41.304Z,10.77
2018-04-17T23:01:08.802Z,10.68
2018-04-17T23:03:36.317Z,10.53
2018-04-17T23:06:03.804Z,10.50
2018-04-17T23:08:31.330Z,10.46
2018-04-17T23:10:58.820Z,10.45
2018-04-17T23:13:26.309Z,10.46
2018-04-17T23:15:53.844Z,10.46
2018-04-17T23:18:21.345Z,10.47
2018-04-17T23:20:48.865Z,10.45
2018-04-17T23:23:16.370Z,10.40
2018-04-17T23:25:43.892Z,10.35
2018-04-17T23:28:11.411Z,10.35
2018-04-17T23:30:38.910Z,10.35
2018-04-17T23:33:06.433Z,10.29
2018-04-17T23:35:33.933Z,10.24
2018-04-17T23:38:01.431Z,10.14
2018-04-17T23:40:28.953Z,10.09
2018-04-17T23:42:56.450Z,10.02
2018-04-17T23:45:23.949Z,10.00
2018-04-17T23:47:51.461Z,9.99
2018-04-17T23:50:18.962Z,9.96
2018-04-17T23:52:46.466Z,9.95
2018-04-17T23:55:13.984Z,9.92
2018-04-17T23:57:41.478Z,9.89
